Tropical Cyclones
[Index]
Main Index Home Page Stock Weather Photos Extreme Storms Discussion Storm News and Storm Chasing Reports Tropical Cyclones / Hurricanes / Typhoons Weather Data and Links Wild Fires / Bushfires Weather Observation Techniques Weather Picture Catalogue Tornado Pictures and Reports Stock Video Footage and DVDs for sale
Season 1994-1995 Tropical Cyclone 199520 Track Map
Season 1994-1995 Summaries: [BoM-AU] [JTWC-AU] [JTWC-SIO] [JTWC-SPAC] [JTWC-SH]
<<- Previous TC | JTWC 1994-1995 Season | Next TC ->>

click for intensity scale information  Lat/long Grid: Show Hide

 Date Labels: Show Hide

Joint Typhoon Warning Centre Cyclone Data

Name: 199520

01 Apr 1995 00:00 UTC to 06 Apr 1995 00:00 UTC

    date/time    lat    long     hPa   cat  kts
1995-04-01 00   10.9   144.5                  15          
1995-04-01 06   10.9   143.4                  15          
1995-04-01 12   11.0   142.3                  15          
1995-04-01 18   11.0   141.2                  15          
1995-04-02 00   11.1   140.1                  20          
1995-04-02 06   11.1   139.0                  20          
1995-04-02 12   11.2   138.0                  20          
1995-04-02 18   11.2   137.1                  20          
1995-04-03 00   11.3   136.2                  25          
1995-04-03 06   11.4   135.3                  25          
1995-04-03 12   11.5   134.3                  25          
1995-04-03 18   11.7   133.3                  25          
1995-04-04 00   11.9   132.2                  25          
1995-04-04 06   12.2   131.0                  25          
1995-04-04 12   12.5   129.8                  25          
1995-04-04 18   13.0   128.7                  20          
1995-04-05 00   13.5   127.7                  20          
1995-04-05 06   14.0   126.8                  20          
1995-04-05 12   14.7   126.1                  20          
1995-04-05 18   15.5   125.7                  15          
1995-04-06 00   16.3   125.4                  15          
Winds are 1-min average.

Tropical cyclone tracks developed by Michael Bath using data from the Joint Typhoon Warning Centre Best Tracks and Google Maps.


[Australian Severe Weather index] [Copyright Notice] [Email Contacts] [Search This Site] [Privacy Policy]
Document: tropical_cyclone_199520.htm Updated: 18 September 2016